| time (UTC) | temp C | wind direction | speed KPH | gust KPH | rain 1hr cm | rain 24hr cm | rain mn cm | humidity % | barometer mb |
| 20260510081539 | 12 | 0 | 0.0 | 3.2 | 0.00 | 0.00 | 0.00 | 83 | 1013.1 |
| 20260510080029 | 12 | 0 | 0.0 | 1.6 | 0.00 | 0.00 | 0.00 | 82 | 1012.8 |
| 20260510074532 | 12 | 273 | 0.0 | 6.4 | 0.00 | 0.00 | 0.00 | 81 | 1012.8 |
| 20260510073035 | 12 | 130 | 0.0 | 4.8 | 0.00 | 0.00 | 0.00 | 81 | 1012.7 |
| 20260510071530 | 13 | 0 | 0.0 | 3.2 | 0.00 | 0.00 | 0.00 | 81 | 1012.8 |
| 20260510070030 | 13 | 0 | 0.0 | 3.2 | 0.00 | 0.00 | 0.00 | 79 | 1012.4 |
| 20260510064537 | 13 | 0 | 1.6 | 4.8 | 0.00 | 0.00 | 0.00 | 78 | 1012.4 |
| 20260510063037 | 13 | 0 | 1.6 | 6.4 | 0.00 | 0.00 | 0.00 | 81 | 1012.5 |
| 20260510061533 | 13 | 0 | 0.0 | 3.2 | 0.00 | 0.00 | 0.00 | 84 | 1012.4 |
| 20260510060033 | 13 | 99 | 0.0 | 3.2 | 0.00 | 0.00 | 0.00 | 84 | 1012.7 |
| 20260510054531 | 13 | 0 | 0.0 | 3.2 | 0.00 | 0.00 | 0.00 | 84 | 1012.5 |
| 20260510053035 | 13 | 99 | 0.0 | 1.6 | 0.00 | 0.00 | 0.00 | 83 | 1012.4 |
| 20260510051534 | 14 | 0 | 0.0 | 1.6 | 0.00 | 0.00 | 0.00 | 82 | 1012.5 |
| 20260510050029 | 14 | 0 | 0.0 | 1.6 | 0.00 | 0.00 | 0.00 | 81 | 1012.4 |
| 20260510044543 | 14 | 0 | 0.0 | 3.2 | 0.00 | 0.00 | 0.00 | 80 | 1012.5 |
| 20260510043030 | 14 | 99 | 0.0 | 1.6 | 0.00 | 0.00 | 0.00 | 81 | 1012.6 |
| 20260510041530 | 15 | 0 | 0.0 | 1.6 | 0.00 | 0.00 | 0.00 | 80 | 1012.6 |
| 20260510040032 | 15 | 0 | 0.0 | 1.6 | 0.00 | 0.00 | 0.00 | 78 | 1012.5 |
| 20260510034535 | 15 | 0 | 0.0 | 1.6 | 0.00 | 0.00 | 0.00 | 78 | 1012.5 |
| 20260510033034 | 16 | 0 | 0.0 | 0.0 | 0.00 | 0.00 | 0.00 | 75 | 1012.3 |
| 20260510031534 | 16 | 0 | 0.0 | 0.0 | 0.00 | 0.00 | 0.00 | 74 | 1012.2 |
| 20260510030034 | 17 | 0 | 0.0 | 1.6 | 0.00 | 0.00 | 0.00 | 72 | 1012.1 |
| 20260510024530 | 17 | 0 | 0.0 | 1.6 | 0.00 | 0.00 | 0.00 | 71 | 1011.9 |
| 20260510023032 | 17 | 0 | 0.0 | 3.2 | 0.00 | 0.00 | 0.00 | 70 | 1011.7 |
| 20260510021536 | 18 | 0 | 0.0 | 0.0 | 0.00 | 0.00 | 0.00 | 68 | 1011.4 |
| 20260510020033 | 19 | 0 | 0.0 | 1.6 | 0.00 | 0.00 | 0.00 | 65 | 1011.2 |
| 20260510014533 | 20 | 0 | 0.0 | 1.6 | 0.00 | 0.00 | 0.00 | 62 | 1011.1 |
| 20260510013032 | 20 | 99 | 0.0 | 3.2 | 0.00 | 0.00 | 0.00 | 63 | 1010.9 |
| 20260510011531 | 20 | 0 | 0.0 | 3.2 | 0.00 | 0.00 | 0.00 | 62 | 1010.7 |
| 20260510010032 | 20 | 113 | 0.0 | 3.2 | 0.00 | 0.00 | 0.00 | 61 | 1010.6 |
| 20260510004529 | 20 | 0 | 0.0 | 1.6 | 0.00 | 0.00 | 0.00 | 60 | 1010.3 |
| 20260510003031 | 21 | 0 | 0.0 | 3.2 | 0.00 | 0.00 | 0.00 | 58 | 1010.2 |
| 20260510001533 | 22 | 0 | 0.0 | 1.6 | 0.00 | 0.00 | 0.00 | 56 | 1010.1 |
| 20260510000034 | 22 | 0 | 0.0 | 4.8 | 0.00 | 0.00 | 0.00 | 55 | 1009.8 |
| 20260509234535 | 23 | 201 | 0.0 | 1.6 | 0.00 | 0.00 | 0.00 | 53 | 1009.7 |
| 20260509233030 | 23 | 0 | 0.0 | 4.8 | 0.00 | 0.00 | 0.00 | 53 | 1009.7 |
| 20260509231531 | 23 | 234 | 0.0 | 8.0 | 0.00 | 0.00 | 0.00 | 53 | 1009.7 |
| 20260509230032 | 23 | 165 | 0.0 | 6.4 | 0.00 | 0.00 | 0.00 | 51 | 1009.7 |
| 20260509224540 | 23 | 153 | 1.6 | 11.3 | 0.00 | 0.00 | 0.00 | 52 | 1009.8 |
| 20260509223034 | 23 | 262 | 1.6 | 9.7 | 0.00 | 0.00 | 0.00 | 51 | 1009.7 |
| 20260509221535 | 23 | 261 | 1.6 | 9.7 | 0.00 | 0.00 | 0.00 | 50 | 1009.6 |
| 20260509220032 | 23 | 180 | 1.6 | 19.3 | 0.00 | 0.00 | 0.00 | 49 | 1009.6 |
| 20260509214530 | 24 | 140 | 1.6 | 8.0 | 0.00 | 0.00 | 0.00 | 49 | 1009.6 |
| 20260509213030 | 24 | 0 | 0.0 | 11.3 | 0.00 | 0.00 | 0.00 | 48 | 1009.6 |
| 20260509211529 | 25 | 153 | 4.8 | 12.9 | 0.00 | 0.00 | 0.00 | 46 | 1009.4 |
| 20260509210034 | 26 | 176 | 3.2 | 17.7 | 0.00 | 0.00 | 0.00 | 44 | 1009.5 |
| 20260509204531 | 25 | 259 | 1.6 | 8.0 | 0.00 | 0.00 | 0.00 | 45 | 1009.2 |
| 20260509203030 | 25 | 196 | 3.2 | 17.7 | 0.00 | 0.00 | 0.00 | 45 | 1009.2 |
| 20260509201539 | 25 | 5 | 1.6 | 9.7 | 0.00 | 0.00 | 0.00 | 44 | 1009.1 |
| 20260509200030 | 25 | 336 | 4.8 | 12.9 | 0.00 | 0.00 | 0.00 | 41 | 1009.2 |
| 20260509194532 | 25 | 20 | 4.8 | 12.9 | 0.00 | 0.00 | 0.00 | 45 | 1009.4 |
| 20260509193032 | 24 | 259 | 4.8 | 19.3 | 0.00 | 0.00 | 0.00 | 45 | 1009.6 |
| 20260509191530 | 25 | 0 | 4.8 | 22.5 | 0.00 | 0.00 | 0.00 | 44 | 1009.7 |
| 20260509190030 | 23 | 331 | 1.6 | 9.7 | 0.00 | 0.00 | 0.00 | 47 | 1010.0 |
| 20260509184533 | 23 | 173 | 1.6 | 17.7 | 0.00 | 0.00 | 0.00 | 47 | 1010.3 |
| 20260509183030 | 23 | 282 | 1.6 | 16.1 | 0.00 | 0.00 | 0.00 | 50 | 1010.5 |
| 20260509181530 | 22 | 195 | 1.6 | 19.3 | 0.00 | 0.00 | 0.00 | 53 | 1010.8 |
| 20260509180032 | 22 | 275 | 1.6 | 19.3 | 0.00 | 0.00 | 0.00 | 56 | 1011.2 |
| 20260509174531 | 22 | 309 | 6.4 | 17.7 | 0.00 | 0.00 | 0.00 | 55 | 1011.3 |
| 20260509173032 | 21 | 279 | 4.8 | 20.9 | 0.00 | 0.00 | 0.00 | 58 | 1011.7 |
| 20260509171537 | 21 | 291 | 3.2 | 11.3 | 0.00 | 0.00 | 0.00 | 60 | 1011.7 |
| 20260509170033 | 20 | 208 | 3.2 | 9.7 | 0.00 | 0.00 | 0.00 | 60 | 1011.6 |
| 20260509164531 | 20 | 267 | 3.2 | 16.1 | 0.00 | 0.00 | 0.00 | 60 | 1011.7 |
| 20260509163034 | 20 | 60 | 3.2 | 16.1 | 0.00 | 0.00 | 0.00 | 61 | 1011.7 |
| 20260509161536 | 19 | 177 | 1.6 | 12.9 | 0.00 | 0.00 | 0.00 | 62 | 1011.8 |
| 20260509160030 | 19 | 332 | 1.6 | 4.8 | 0.00 | 0.00 | 0.00 | 66 | 1012.0 |
| 20260509154532 | 18 | 74 | 1.6 | 9.7 | 0.00 | 0.00 | 0.00 | 65 | 1012.1 |
| 20260509153029 | 17 | 0 | 1.6 | 14.5 | 0.00 | 0.00 | 0.00 | 66 | 1012.3 |
| 20260509151530 | 17 | 76 | 3.2 | 12.9 | 0.00 | 0.00 | 0.00 | 63 | 1012.4 |
| 20260509150036 | 17 | 174 | 1.6 | 9.7 | 0.00 | 0.00 | 0.00 | 65 | 1012.5 |
| 20260509144534 | 16 | 81 | 1.6 | 8.0 | 0.00 | 0.00 | 0.00 | 65 | 1012.4 |
| 20260509143035 | 15 | 273 | 3.2 | 12.9 | 0.00 | 0.00 | 0.00 | 66 | 1012.2 |
| 20260509141534 | 15 | 261 | 1.6 | 9.7 | 0.00 | 0.00 | 0.00 | 68 | 1012.4 |
| 20260509140032 | 14 | 92 | 0.0 | 8.0 | 0.00 | 0.00 | 0.00 | 69 | 1012.6 |
| 20260509134530 | 14 | 87 | 0.0 | 4.8 | 0.00 | 0.00 | 0.00 | 68 | 1012.7 |
| 20260509133029 | 13 | 250 | 0.0 | 3.2 | 0.00 | 0.00 | 0.00 | 69 | 1012.8 |
| 20260509131545 | 13 | 300 | 0.0 | 9.7 | 0.00 | 0.00 | 0.00 | 69 | 1012.9 |
| 20260509130039 | 13 | 161 | 1.6 | 8.0 | 0.00 | 0.00 | 0.00 | 69 | 1013.0 |
| 20260509124530 | 12 | 126 | 0.0 | 4.8 | 0.00 | 0.00 | 0.00 | 69 | 1013.0 |
| 20260509123032 | 12 | 0 | 0.0 | 8.0 | 0.00 | 0.00 | 0.00 | 68 | 1013.0 |
| 20260509121532 | 12 | 0 | 0.0 | 4.8 | 0.00 | 0.00 | 0.00 | 70 | 1013.1 |
| 20260509120032 | 12 | 58 | 1.6 | 4.8 | 0.00 | 0.00 | 0.00 | 69 | 1013.0 |
| 20260509114538 | 12 | 0 | 1.6 | 11.3 | 0.00 | 0.00 | 0.00 | 67 | 1012.8 |
| 20260509113034 | 11 | 69 | 1.6 | 8.0 | 0.00 | 0.00 | 0.00 | 67 | 1012.9 |
| 20260509111529 | 11 | 0 | 0.0 | 6.4 | 0.00 | 0.00 | 0.00 | 67 | 1012.7 |
| 20260509110030 | 11 | 0 | 0.0 | 6.4 | 0.00 | 0.00 | 0.00 | 67 | 1012.8 |
| 20260509104532 | 11 | 0 | 1.6 | 6.4 | 0.00 | 0.00 | 0.00 | 68 | 1012.8 |
| 20260509103030 | 11 | 0 | 0.0 | 3.2 | 0.00 | 0.00 | 0.00 | 69 | 1012.8 |
| 20260509101543 | 10 | 115 | 0.0 | 3.2 | 0.00 | 0.00 | 0.00 | 70 | 1012.8 |
| 20260509100030 | 10 | 0 | 0.0 | 0.0 | 0.00 | 0.00 | 0.00 | 71 | 1012.8 |
| 20260509094530 | 10 | 0 | 0.0 | 1.6 | 0.00 | 0.00 | 0.00 | 70 | 1012.7 |
| 20260509093033 | 10 | 0 | 0.0 | 3.2 | 0.00 | 0.00 | 0.00 | 69 | 1012.7 |
| 20260509091533 | 11 | 0 | 0.0 | 0.0 | 0.00 | 0.00 | 0.00 | 68 | 1012.9 |
| 20260509090030 | 11 | 0 | 0.0 | 1.6 | 0.00 | 0.00 | 0.00 | 68 | 1012.9 |
| 20260509084530 | 11 | 0 | 0.0 | 1.6 | 0.00 | 0.00 | 0.00 | 67 | 1012.9 |
| 20260509083041 | 11 | 115 | 0.0 | 3.2 | 0.00 | 0.00 | 0.00 | 65 | 1013.3 |